sensor_id;sensor_type;location;lat;lon;timestamp;P1;durP1;ratioP1;P2;durP2;ratioP2
15996;SDS011;8103;51.340;12.326;2024-01-30T00:00:50;7.43;;;4.60;;
15996;SDS011;8103;51.340;12.326;2024-01-30T00:03:16;8.15;;;4.38;;
15996;SDS011;8103;51.340;12.326;2024-01-30T00:05:44;7.60;;;3.85;;
15996;SDS011;8103;51.340;12.326;2024-01-30T00:08:10;6.50;;;4.30;;
15996;SDS011;8103;51.340;12.326;2024-01-30T00:10:37;5.57;;;4.10;;
15996;SDS011;8103;51.340;12.326;2024-01-30T00:13:04;6.53;;;3.88;;
15996;SDS011;8103;51.340;12.326;2024-01-30T00:15:30;6.05;;;3.65;;
15996;SDS011;8103;51.340;12.326;2024-01-30T00:17:57;5.80;;;3.50;;
15996;SDS011;8103;51.340;12.326;2024-01-30T00:20:24;5.82;;;4.18;;
15996;SDS011;8103;51.340;12.326;2024-01-30T00:22:50;6.57;;;3.97;;
15996;SDS011;8103;51.340;12.326;2024-01-30T00:25:17;6.50;;;3.90;;
15996;SDS011;8103;51.340;12.326;2024-01-30T00:27:44;5.30;;;4.07;;
15996;SDS011;8103;51.340;12.326;2024-01-30T00:30:11;5.80;;;3.95;;
15996;SDS011;8103;51.340;12.326;2024-01-30T00:32:38;8.02;;;3.35;;
15996;SDS011;8103;51.340;12.326;2024-01-30T00:35:04;8.57;;;3.95;;
15996;SDS011;8103;51.340;12.326;2024-01-30T00:37:32;4.40;;;3.67;;
15996;SDS011;8103;51.340;12.326;2024-01-30T00:39:58;6.97;;;3.90;;
15996;SDS011;8103;51.340;12.326;2024-01-30T00:42:25;5.85;;;3.88;;
15996;SDS011;8103;51.340;12.326;2024-01-30T00:44:52;5.00;;;4.00;;
15996;SDS011;8103;51.340;12.326;2024-01-30T00:47:19;6.85;;;3.80;;
15996;SDS011;8103;51.340;12.326;2024-01-30T00:49:45;7.03;;;3.80;;
15996;SDS011;8103;51.340;12.326;2024-01-30T00:52:12;7.93;;;4.25;;
15996;SDS011;8103;51.340;12.326;2024-01-30T00:54:39;5.28;;;4.05;;
15996;SDS011;8103;51.340;12.326;2024-01-30T00:57:06;5.25;;;3.55;;
15996;SDS011;8103;51.340;12.326;2024-01-30T00:59:33;6.63;;;3.80;;
15996;SDS011;8103;51.340;12.326;2024-01-30T01:01:59;7.95;;;4.15;;
15996;SDS011;8103;51.340;12.326;2024-01-30T01:04:26;5.43;;;3.58;;
15996;SDS011;8103;51.340;12.326;2024-01-30T01:06:53;5.22;;;3.67;;
15996;SDS011;8103;51.340;12.326;2024-01-30T01:09:20;8.30;;;4.25;;
15996;SDS011;8103;51.340;12.326;2024-01-30T01:11:46;4.82;;;3.42;;
15996;SDS011;8103;51.340;12.326;2024-01-30T01:14:13;5.32;;;4.00;;
15996;SDS011;8103;51.340;12.326;2024-01-30T01:16:40;5.72;;;3.92;;
15996;SDS011;8103;51.340;12.326;2024-01-30T01:19:07;6.15;;;3.60;;
15996;SDS011;8103;51.340;12.326;2024-01-30T01:21:34;5.03;;;4.00;;
15996;SDS011;8103;51.340;12.326;2024-01-30T01:24:00;5.57;;;3.92;;
15996;SDS011;8103;51.340;12.326;2024-01-30T01:26:27;3.65;;;3.17;;
15996;SDS011;8103;51.340;12.326;2024-01-30T01:28:54;5.15;;;3.72;;
15996;SDS011;8103;51.340;12.326;2024-01-30T01:31:20;6.43;;;3.53;;
15996;SDS011;8103;51.340;12.326;2024-01-30T01:33:50;6.75;;;3.17;;
15996;SDS011;8103;51.340;12.326;2024-01-30T01:36:17;6.05;;;3.70;;
15996;SDS011;8103;51.340;12.326;2024-01-30T01:38:44;5.25;;;3.35;;
15996;SDS011;8103;51.340;12.326;2024-01-30T01:41:11;7.10;;;4.18;;
15996;SDS011;8103;51.340;12.326;2024-01-30T01:43:37;5.95;;;3.90;;
15996;SDS011;8103;51.340;12.326;2024-01-30T01:46:06;10.40;;;4.20;;
15996;SDS011;8103;51.340;12.326;2024-01-30T01:48:33;8.43;;;4.28;;
15996;SDS011;8103;51.340;12.326;2024-01-30T01:51:00;5.75;;;3.78;;
15996;SDS011;8103;51.340;12.326;2024-01-30T01:53:27;7.03;;;3.92;;
15996;SDS011;8103;51.340;12.326;2024-01-30T01:55:54;6.38;;;3.90;;
15996;SDS011;8103;51.340;12.326;2024-01-30T01:58:21;4.70;;;3.50;;
15996;SDS011;8103;51.340;12.326;2024-01-30T02:00:50;5.35;;;3.67;;
15996;SDS011;8103;51.340;12.326;2024-01-30T02:03:17;5.13;;;3.15;;
15996;SDS011;8103;51.340;12.326;2024-01-30T02:05:47;8.90;;;4.07;;
15996;SDS011;8103;51.340;12.326;2024-01-30T02:08:15;8.98;;;3.53;;
15996;SDS011;8103;51.340;12.326;2024-01-30T02:10:42;4.90;;;3.45;;
15996;SDS011;8103;51.340;12.326;2024-01-30T02:13:08;6.45;;;3.63;;
15996;SDS011;8103;51.340;12.326;2024-01-30T02:15:35;4.57;;;3.40;;
15996;SDS011;8103;51.340;12.326;2024-01-30T02:18:02;4.93;;;4.15;;
15996;SDS011;8103;51.340;12.326;2024-01-30T02:20:29;5.10;;;3.65;;
15996;SDS011;8103;51.340;12.326;2024-01-30T02:22:58;5.18;;;3.65;;
15996;SDS011;8103;51.340;12.326;2024-01-30T02:25:40;7.45;;;3.92;;
15996;SDS011;8103;51.340;12.326;2024-01-30T02:28:10;6.13;;;4.15;;
15996;SDS011;8103;51.340;12.326;2024-01-30T02:30:42;5.82;;;3.38;;
15996;SDS011;8103;51.340;12.326;2024-01-30T02:33:09;6.10;;;3.65;;
15996;SDS011;8103;51.340;12.326;2024-01-30T02:35:36;6.13;;;3.28;;
15996;SDS011;8103;51.340;12.326;2024-01-30T02:38:02;5.90;;;3.83;;
15996;SDS011;8103;51.340;12.326;2024-01-30T02:40:29;7.97;;;4.05;;
15996;SDS011;8103;51.340;12.326;2024-01-30T02:42:57;5.13;;;3.58;;
15996;SDS011;8103;51.340;12.326;2024-01-30T02:45:25;5.20;;;3.50;;
15996;SDS011;8103;51.340;12.326;2024-01-30T02:47:52;4.45;;;3.35;;
15996;SDS011;8103;51.340;12.326;2024-01-30T02:50:18;5.13;;;3.35;;
15996;SDS011;8103;51.340;12.326;2024-01-30T02:52:45;4.57;;;3.33;;
15996;SDS011;8103;51.340;12.326;2024-01-30T02:55:12;4.85;;;3.40;;
15996;SDS011;8103;51.340;12.326;2024-01-30T02:57:39;5.15;;;3.30;;
15996;SDS011;8103;51.340;12.326;2024-01-30T03:00:06;4.88;;;3.30;;
15996;SDS011;8103;51.340;12.326;2024-01-30T03:02:35;3.65;;;2.95;;
15996;SDS011;8103;51.340;12.326;2024-01-30T03:05:03;4.25;;;3.35;;
15996;SDS011;8103;51.340;12.326;2024-01-30T03:07:31;4.63;;;3.53;;
15996;SDS011;8103;51.340;12.326;2024-01-30T03:10:00;4.88;;;3.28;;
15996;SDS011;8103;51.340;12.326;2024-01-30T03:12:26;5.65;;;3.85;;
15996;SDS011;8103;51.340;12.326;2024-01-30T03:14:54;4.78;;;3.42;;
15996;SDS011;8103;51.340;12.326;2024-01-30T03:17:20;5.00;;;3.78;;
15996;SDS011;8103;51.340;12.326;2024-01-30T03:19:47;6.93;;;4.78;;
15996;SDS011;8103;51.340;12.326;2024-01-30T03:22:14;9.35;;;4.45;;
15996;SDS011;8103;51.340;12.326;2024-01-30T03:24:41;5.95;;;3.55;;
15996;SDS011;8103;51.340;12.326;2024-01-30T03:27:08;6.05;;;3.45;;
15996;SDS011;8103;51.340;12.326;2024-01-30T03:29:35;5.10;;;3.17;;
15996;SDS011;8103;51.340;12.326;2024-01-30T03:32:01;5.55;;;3.60;;
15996;SDS011;8103;51.340;12.326;2024-01-30T03:34:30;6.55;;;3.53;;
15996;SDS011;8103;51.340;12.326;2024-01-30T03:36:56;4.57;;;3.38;;
15996;SDS011;8103;51.340;12.326;2024-01-30T03:39:24;5.72;;;3.78;;
15996;SDS011;8103;51.340;12.326;2024-01-30T03:41:50;5.38;;;4.13;;
15996;SDS011;8103;51.340;12.326;2024-01-30T03:44:17;6.32;;;3.40;;
15996;SDS011;8103;51.340;12.326;2024-01-30T03:46:44;5.28;;;3.60;;
15996;SDS011;8103;51.340;12.326;2024-01-30T03:49:11;7.65;;;3.90;;
15996;SDS011;8103;51.340;12.326;2024-01-30T03:51:38;4.53;;;3.83;;
15996;SDS011;8103;51.340;12.326;2024-01-30T03:54:05;7.45;;;3.67;;
15996;SDS011;8103;51.340;12.326;2024-01-30T03:56:32;6.03;;;3.83;;
15996;SDS011;8103;51.340;12.326;2024-01-30T03:58:58;7.78;;;4.00;;
15996;SDS011;8103;51.340;12.326;2024-01-30T04:01:26;5.25;;;3.85;;
15996;SDS011;8103;51.340;12.326;2024-01-30T04:03:53;7.45;;;3.22;;
15996;SDS011;8103;51.340;12.326;2024-01-30T04:06:20;7.82;;;3.75;;
15996;SDS011;8103;51.340;12.326;2024-01-30T04:08:46;5.57;;;3.63;;
15996;SDS011;8103;51.340;12.326;2024-01-30T04:11:13;6.68;;;4.00;;
15996;SDS011;8103;51.340;12.326;2024-01-30T04:13:40;5.28;;;3.80;;
15996;SDS011;8103;51.340;12.326;2024-01-30T04:16:18;5.65;;;3.45;;
15996;SDS011;8103;51.340;12.326;2024-01-30T04:18:47;5.18;;;4.13;;
15996;SDS011;8103;51.340;12.326;2024-01-30T04:21:14;6.53;;;3.85;;
15996;SDS011;8103;51.340;12.326;2024-01-30T04:23:41;6.28;;;3.35;;
15996;SDS011;8103;51.340;12.326;2024-01-30T04:26:07;7.75;;;4.30;;
15996;SDS011;8103;51.340;12.326;2024-01-30T04:28:34;6.50;;;4.40;;
15996;SDS011;8103;51.340;12.326;2024-01-30T04:31:01;5.07;;;3.72;;
15996;SDS011;8103;51.340;12.326;2024-01-30T04:33:28;6.88;;;3.90;;
15996;SDS011;8103;51.340;12.326;2024-01-30T04:35:54;6.88;;;4.28;;
15996;SDS011;8103;51.340;12.326;2024-01-30T04:38:21;6.65;;;4.47;;
15996;SDS011;8103;51.340;12.326;2024-01-30T04:40:48;9.00;;;3.95;;
15996;SDS011;8103;51.340;12.326;2024-01-30T04:43:15;7.13;;;4.18;;
15996;SDS011;8103;51.340;12.326;2024-01-30T04:45:42;7.18;;;3.88;;
15996;SDS011;8103;51.340;12.326;2024-01-30T04:48:08;6.15;;;3.80;;
15996;SDS011;8103;51.340;12.326;2024-01-30T04:50:35;5.13;;;3.97;;
15996;SDS011;8103;51.340;12.326;2024-01-30T04:53:02;8.63;;;4.47;;
15996;SDS011;8103;51.340;12.326;2024-01-30T04:55:29;7.32;;;4.45;;
15996;SDS011;8103;51.340;12.326;2024-01-30T04:57:56;8.45;;;4.68;;
15996;SDS011;8103;51.340;12.326;2024-01-30T05:00:22;7.10;;;4.43;;
15996;SDS011;8103;51.340;12.326;2024-01-30T05:02:49;7.35;;;3.63;;
15996;SDS011;8103;51.340;12.326;2024-01-30T05:05:16;5.75;;;3.72;;
15996;SDS011;8103;51.340;12.326;2024-01-30T05:07:43;8.10;;;4.30;;
15996;SDS011;8103;51.340;12.326;2024-01-30T05:10:09;4.68;;;4.05;;
15996;SDS011;8103;51.340;12.326;2024-01-30T05:12:36;8.25;;;4.00;;
15996;SDS011;8103;51.340;12.326;2024-01-30T05:15:03;7.97;;;5.00;;
15996;SDS011;8103;51.340;12.326;2024-01-30T05:17:30;5.65;;;4.35;;
15996;SDS011;8103;51.340;12.326;2024-01-30T05:19:56;6.00;;;4.45;;
15996;SDS011;8103;51.340;12.326;2024-01-30T05:22:23;5.13;;;4.00;;
15996;SDS011;8103;51.340;12.326;2024-01-30T05:24:50;10.68;;;4.03;;
15996;SDS011;8103;51.340;12.326;2024-01-30T05:27:17;8.02;;;4.32;;
15996;SDS011;8103;51.340;12.326;2024-01-30T05:29:43;5.82;;;4.10;;
15996;SDS011;8103;51.340;12.326;2024-01-30T05:32:10;8.93;;;4.72;;
15996;SDS011;8103;51.340;12.326;2024-01-30T05:34:37;9.30;;;4.40;;
15996;SDS011;8103;51.340;12.326;2024-01-30T05:37:03;7.22;;;4.53;;
15996;SDS011;8103;51.340;12.326;2024-01-30T05:39:30;7.55;;;4.75;;
15996;SDS011;8103;51.340;12.326;2024-01-30T05:41:59;5.88;;;4.15;;
15996;SDS011;8103;51.340;12.326;2024-01-30T05:44:26;9.20;;;4.60;;
15996;SDS011;8103;51.340;12.326;2024-01-30T05:46:53;5.53;;;4.00;;
15996;SDS011;8103;51.340;12.326;2024-01-30T05:49:19;5.88;;;4.03;;
15996;SDS011;8103;51.340;12.326;2024-01-30T05:51:46;9.70;;;4.43;;
15996;SDS011;8103;51.340;12.326;2024-01-30T05:54:13;7.35;;;4.05;;
15996;SDS011;8103;51.340;12.326;2024-01-30T05:56:42;8.18;;;4.85;;
15996;SDS011;8103;51.340;12.326;2024-01-30T05:59:09;9.15;;;4.60;;
15996;SDS011;8103;51.340;12.326;2024-01-30T06:01:35;9.20;;;4.60;;
15996;SDS011;8103;51.340;12.326;2024-01-30T06:04:02;6.32;;;3.80;;
15996;SDS011;8103;51.340;12.326;2024-01-30T06:06:29;7.30;;;4.43;;
15996;SDS011;8103;51.340;12.326;2024-01-30T06:08:56;8.43;;;5.25;;
15996;SDS011;8103;51.340;12.326;2024-01-30T06:11:23;8.25;;;4.85;;
15996;SDS011;8103;51.340;12.326;2024-01-30T06:13:49;6.43;;;4.28;;
15996;SDS011;8103;51.340;12.326;2024-01-30T06:16:16;8.50;;;4.68;;
15996;SDS011;8103;51.340;12.326;2024-01-30T06:18:43;6.85;;;4.43;;
15996;SDS011;8103;51.340;12.326;2024-01-30T06:21:09;8.10;;;4.60;;
15996;SDS011;8103;51.340;12.326;2024-01-30T06:23:38;8.48;;;4.68;;
15996;SDS011;8103;51.340;12.326;2024-01-30T06:26:06;7.68;;;4.75;;
15996;SDS011;8103;51.340;12.326;2024-01-30T06:28:33;9.50;;;4.75;;
15996;SDS011;8103;51.340;12.326;2024-01-30T06:31:00;7.03;;;5.25;;
15996;SDS011;8103;51.340;12.326;2024-01-30T06:33:27;9.35;;;5.43;;
15996;SDS011;8103;51.340;12.326;2024-01-30T06:35:54;8.95;;;4.80;;
15996;SDS011;8103;51.340;12.326;2024-01-30T06:38:21;7.85;;;5.53;;
15996;SDS011;8103;51.340;12.326;2024-01-30T06:40:47;9.73;;;6.28;;
15996;SDS011;8103;51.340;12.326;2024-01-30T06:43:14;13.90;;;6.72;;
15996;SDS011;8103;51.340;12.326;2024-01-30T06:45:41;13.20;;;7.32;;
15996;SDS011;8103;51.340;12.326;2024-01-30T06:48:09;13.30;;;8.18;;
15996;SDS011;8103;51.340;12.326;2024-01-30T06:50:35;11.88;;;6.07;;
15996;SDS011;8103;51.340;12.326;2024-01-30T06:53:02;9.20;;;5.97;;
15996;SDS011;8103;51.340;12.326;2024-01-30T06:55:29;9.70;;;5.40;;
15996;SDS011;8103;51.340;12.326;2024-01-30T06:57:56;9.07;;;4.93;;
15996;SDS011;8103;51.340;12.326;2024-01-30T07:00:22;7.63;;;4.72;;
15996;SDS011;8103;51.340;12.326;2024-01-30T07:02:49;7.05;;;4.38;;
15996;SDS011;8103;51.340;12.326;2024-01-30T07:05:16;7.65;;;4.75;;
15996;SDS011;8103;51.340;12.326;2024-01-30T07:07:43;7.80;;;4.75;;
15996;SDS011;8103;51.340;12.326;2024-01-30T07:10:10;8.38;;;5.03;;
15996;SDS011;8103;51.340;12.326;2024-01-30T07:12:37;7.53;;;5.60;;
15996;SDS011;8103;51.340;12.326;2024-01-30T07:15:04;6.47;;;4.40;;
15996;SDS011;8103;51.340;12.326;2024-01-30T07:17:34;8.73;;;4.90;;
15996;SDS011;8103;51.340;12.326;2024-01-30T07:20:01;10.00;;;5.00;;
15996;SDS011;8103;51.340;12.326;2024-01-30T07:22:31;9.27;;;5.60;;
15996;SDS011;8103;51.340;12.326;2024-01-30T07:24:58;7.72;;;5.22;;
15996;SDS011;8103;51.340;12.326;2024-01-30T07:27:25;10.68;;;5.32;;
15996;SDS011;8103;51.340;12.326;2024-01-30T07:29:51;8.20;;;5.45;;
15996;SDS011;8103;51.340;12.326;2024-01-30T07:32:18;7.47;;;4.93;;
15996;SDS011;8103;51.340;12.326;2024-01-30T07:34:45;5.03;;;3.90;;
15996;SDS011;8103;51.340;12.326;2024-01-30T07:37:18;8.60;;;5.07;;
15996;SDS011;8103;51.340;12.326;2024-01-30T07:39:45;8.13;;;4.93;;
15996;SDS011;8103;51.340;12.326;2024-01-30T07:42:12;7.13;;;4.90;;
15996;SDS011;8103;51.340;12.326;2024-01-30T07:44:38;8.82;;;5.10;;
15996;SDS011;8103;51.340;12.326;2024-01-30T07:47:05;11.43;;;4.55;;
15996;SDS011;8103;51.340;12.326;2024-01-30T07:49:32;8.60;;;5.43;;
15996;SDS011;8103;51.340;12.326;2024-01-30T07:51:59;9.20;;;4.28;;
15996;SDS011;8103;51.340;12.326;2024-01-30T07:54:26;8.85;;;5.10;;
15996;SDS011;8103;51.340;12.326;2024-01-30T07:56:52;7.22;;;4.90;;
15996;SDS011;8103;51.340;12.326;2024-01-30T07:59:19;12.77;;;5.72;;
15996;SDS011;8103;51.340;12.326;2024-01-30T08:01:47;9.55;;;4.90;;
15996;SDS011;8103;51.340;12.326;2024-01-30T08:04:14;9.82;;;4.80;;
15996;SDS011;8103;51.340;12.326;2024-01-30T08:06:41;9.23;;;4.85;;
15996;SDS011;8103;51.340;12.326;2024-01-30T08:09:09;13.93;;;5.47;;
15996;SDS011;8103;51.340;12.326;2024-01-30T08:11:37;9.10;;;4.70;;
15996;SDS011;8103;51.340;12.326;2024-01-30T08:14:03;10.07;;;5.05;;
15996;SDS011;8103;51.340;12.326;2024-01-30T08:16:30;9.80;;;5.15;;
15996;SDS011;8103;51.340;12.326;2024-01-30T08:18:57;7.50;;;4.90;;
15996;SDS011;8103;51.340;12.326;2024-01-30T08:21:24;6.68;;;4.82;;
15996;SDS011;8103;51.340;12.326;2024-01-30T08:23:51;10.27;;;5.15;;
15996;SDS011;8103;51.340;12.326;2024-01-30T08:26:18;13.40;;;4.38;;
15996;SDS011;8103;51.340;12.326;2024-01-30T08:28:45;9.27;;;5.38;;
15996;SDS011;8103;51.340;12.326;2024-01-30T08:31:11;9.13;;;4.82;;
15996;SDS011;8103;51.340;12.326;2024-01-30T08:33:38;6.22;;;4.03;;
15996;SDS011;8103;51.340;12.326;2024-01-30T08:36:05;7.68;;;5.20;;
15996;SDS011;8103;51.340;12.326;2024-01-30T08:38:32;6.90;;;4.60;;
15996;SDS011;8103;51.340;12.326;2024-01-30T08:40:59;6.47;;;4.25;;
15996;SDS011;8103;51.340;12.326;2024-01-30T08:43:25;8.75;;;4.70;;
15996;SDS011;8103;51.340;12.326;2024-01-30T08:45:52;9.13;;;4.93;;
15996;SDS011;8103;51.340;12.326;2024-01-30T08:48:19;8.02;;;5.00;;
15996;SDS011;8103;51.340;12.326;2024-01-30T08:50:47;8.23;;;5.03;;
15996;SDS011;8103;51.340;12.326;2024-01-30T08:53:14;9.07;;;4.60;;
15996;SDS011;8103;51.340;12.326;2024-01-30T08:55:40;7.95;;;4.72;;
15996;SDS011;8103;51.340;12.326;2024-01-30T08:58:07;9.05;;;5.15;;
15996;SDS011;8103;51.340;12.326;2024-01-30T09:00:34;6.90;;;4.65;;
15996;SDS011;8103;51.340;12.326;2024-01-30T09:03:01;10.43;;;4.97;;
15996;SDS011;8103;51.340;12.326;2024-01-30T09:05:27;9.27;;;4.75;;
15996;SDS011;8103;51.340;12.326;2024-01-30T09:07:54;5.80;;;4.72;;
15996;SDS011;8103;51.340;12.326;2024-01-30T09:10:21;8.10;;;4.63;;
15996;SDS011;8103;51.340;12.326;2024-01-30T09:12:48;5.90;;;4.63;;
15996;SDS011;8103;51.340;12.326;2024-01-30T09:15:15;10.80;;;4.95;;
15996;SDS011;8103;51.340;12.326;2024-01-30T09:17:42;7.78;;;4.97;;
15996;SDS011;8103;51.340;12.326;2024-01-30T09:20:09;8.25;;;4.93;;
15996;SDS011;8103;51.340;12.326;2024-01-30T09:22:36;6.05;;;4.38;;
15996;SDS011;8103;51.340;12.326;2024-01-30T09:25:03;7.32;;;4.90;;
15996;SDS011;8103;51.340;12.326;2024-01-30T09:27:30;9.52;;;5.32;;
15996;SDS011;8103;51.340;12.326;2024-01-30T09:29:57;7.88;;;4.60;;
15996;SDS011;8103;51.340;12.326;2024-01-30T09:32:24;8.25;;;5.00;;
15996;SDS011;8103;51.340;12.326;2024-01-30T09:34:50;12.00;;;5.93;;
15996;SDS011;8103;51.340;12.326;2024-01-30T09:37:17;16.95;;;5.78;;
15996;SDS011;8103;51.340;12.326;2024-01-30T09:39:44;7.10;;;4.70;;
15996;SDS011;8103;51.340;12.326;2024-01-30T09:44:52;7.47;;;4.68;;
15996;SDS011;8103;51.340;12.326;2024-01-30T09:47:20;8.43;;;5.35;;
15996;SDS011;8103;51.340;12.326;2024-01-30T09:49:46;7.43;;;4.75;;
15996;SDS011;8103;51.340;12.326;2024-01-30T09:52:14;5.85;;;4.50;;
15996;SDS011;8103;51.340;12.326;2024-01-30T09:54:41;9.27;;;5.50;;
15996;SDS011;8103;51.340;12.326;2024-01-30T09:57:09;8.15;;;5.90;;
15996;SDS011;8103;51.340;12.326;2024-01-30T09:59:37;13.43;;;5.25;;
15996;SDS011;8103;51.340;12.326;2024-01-30T10:02:04;8.20;;;4.97;;
15996;SDS011;8103;51.340;12.326;2024-01-30T10:04:31;6.78;;;4.60;;
15996;SDS011;8103;51.340;12.326;2024-01-30T10:06:59;8.23;;;4.75;;
15996;SDS011;8103;51.340;12.326;2024-01-30T10:09:28;9.00;;;5.00;;
15996;SDS011;8103;51.340;12.326;2024-01-30T10:11:57;7.05;;;4.90;;
15996;SDS011;8103;51.340;12.326;2024-01-30T10:14:24;11.38;;;5.57;;
15996;SDS011;8103;51.340;12.326;2024-01-30T10:16:51;9.05;;;5.90;;
15996;SDS011;8103;51.340;12.326;2024-01-30T10:19:18;9.15;;;6.57;;
15996;SDS011;8103;51.340;12.326;2024-01-30T10:21:45;7.28;;;5.55;;
15996;SDS011;8103;51.340;12.326;2024-01-30T10:24:12;9.75;;;5.10;;
15996;SDS011;8103;51.340;12.326;2024-01-30T10:26:40;6.82;;;5.15;;
15996;SDS011;8103;51.340;12.326;2024-01-30T10:29:09;8.95;;;5.18;;
15996;SDS011;8103;51.340;12.326;2024-01-30T10:31:36;8.05;;;5.15;;
15996;SDS011;8103;51.340;12.326;2024-01-30T10:34:03;9.10;;;5.35;;
15996;SDS011;8103;51.340;12.326;2024-01-30T10:36:35;7.60;;;5.32;;
15996;SDS011;8103;51.340;12.326;2024-01-30T10:39:09;8.15;;;4.90;;
15996;SDS011;8103;51.340;12.326;2024-01-30T10:41:39;10.05;;;5.60;;
15996;SDS011;8103;51.340;12.326;2024-01-30T10:44:11;9.95;;;5.43;;
15996;SDS011;8103;51.340;12.326;2024-01-30T10:46:38;6.80;;;4.57;;
15996;SDS011;8103;51.340;12.326;2024-01-30T10:49:06;7.38;;;5.18;;
15996;SDS011;8103;51.340;12.326;2024-01-30T10:51:34;6.38;;;5.32;;
15996;SDS011;8103;51.340;12.326;2024-01-30T10:54:01;6.05;;;4.65;;
15996;SDS011;8103;51.340;12.326;2024-01-30T10:56:31;8.13;;;5.80;;
15996;SDS011;8103;51.340;12.326;2024-01-30T10:58:59;6.60;;;4.55;;
15996;SDS011;8103;51.340;12.326;2024-01-30T11:01:26;8.98;;;5.40;;
15996;SDS011;8103;51.340;12.326;2024-01-30T11:03:55;8.27;;;5.05;;
15996;SDS011;8103;51.340;12.326;2024-01-30T11:06:23;5.72;;;4.45;;
15996;SDS011;8103;51.340;12.326;2024-01-30T11:09:01;10.82;;;5.75;;
15996;SDS011;8103;51.340;12.326;2024-01-30T11:14:26;7.95;;;5.70;;
15996;SDS011;8103;51.340;12.326;2024-01-30T11:16:58;8.77;;;5.57;;
15996;SDS011;8103;51.340;12.326;2024-01-30T11:19:26;7.30;;;5.40;;
15996;SDS011;8103;51.340;12.326;2024-01-30T11:21:53;8.35;;;5.45;;
15996;SDS011;8103;51.340;12.326;2024-01-30T11:24:20;8.20;;;4.72;;
15996;SDS011;8103;51.340;12.326;2024-01-30T11:26:54;6.95;;;4.65;;
15996;SDS011;8103;51.340;12.326;2024-01-30T11:29:24;9.88;;;4.82;;
15996;SDS011;8103;51.340;12.326;2024-01-30T11:31:52;7.50;;;5.30;;
15996;SDS011;8103;51.340;12.326;2024-01-30T11:34:20;6.78;;;5.18;;
15996;SDS011;8103;51.340;12.326;2024-01-30T11:36:56;7.80;;;5.10;;
15996;SDS011;8103;51.340;12.326;2024-01-30T11:39:26;13.15;;;5.70;;
15996;SDS011;8103;51.340;12.326;2024-01-30T11:41:53;6.90;;;4.78;;
15996;SDS011;8103;51.340;12.326;2024-01-30T11:44:19;12.90;;;5.38;;
15996;SDS011;8103;51.340;12.326;2024-01-30T11:46:48;8.38;;;5.82;;
15996;SDS011;8103;51.340;12.326;2024-01-30T11:49:15;7.38;;;4.97;;
15996;SDS011;8103;51.340;12.326;2024-01-30T11:51:45;7.68;;;4.68;;
15996;SDS011;8103;51.340;12.326;2024-01-30T11:54:12;5.82;;;4.80;;
15996;SDS011;8103;51.340;12.326;2024-01-30T11:56:39;9.20;;;5.70;;
15996;SDS011;8103;51.340;12.326;2024-01-30T11:59:06;10.15;;;5.15;;
15996;SDS011;8103;51.340;12.326;2024-01-30T12:01:33;10.25;;;5.90;;
15996;SDS011;8103;51.340;12.326;2024-01-30T12:03:59;9.27;;;5.45;;
15996;SDS011;8103;51.340;12.326;2024-01-30T12:06:27;7.15;;;5.53;;
15996;SDS011;8103;51.340;12.326;2024-01-30T12:09:01;8.23;;;4.85;;
15996;SDS011;8103;51.340;12.326;2024-01-30T12:11:43;9.50;;;5.88;;
15996;SDS011;8103;51.340;12.326;2024-01-30T12:14:13;11.77;;;6.40;;
15996;SDS011;8103;51.340;12.326;2024-01-30T12:16:41;6.63;;;4.93;;
15996;SDS011;8103;51.340;12.326;2024-01-30T12:19:08;9.48;;;5.22;;
15996;SDS011;8103;51.340;12.326;2024-01-30T12:21:34;6.43;;;4.82;;
15996;SDS011;8103;51.340;12.326;2024-01-30T12:24:02;11.00;;;4.90;;
15996;SDS011;8103;51.340;12.326;2024-01-30T12:26:28;8.38;;;5.03;;
15996;SDS011;8103;51.340;12.326;2024-01-30T12:28:55;9.23;;;4.93;;
15996;SDS011;8103;51.340;12.326;2024-01-30T12:31:27;5.13;;;4.55;;
15996;SDS011;8103;51.340;12.326;2024-01-30T12:33:55;8.48;;;5.07;;
15996;SDS011;8103;51.340;12.326;2024-01-30T12:36:22;9.15;;;5.80;;
15996;SDS011;8103;51.340;12.326;2024-01-30T12:38:50;14.05;;;4.30;;
15996;SDS011;8103;51.340;12.326;2024-01-30T12:41:17;14.57;;;5.15;;
15996;SDS011;8103;51.340;12.326;2024-01-30T12:43:44;8.63;;;4.65;;
15996;SDS011;8103;51.340;12.326;2024-01-30T12:46:11;8.90;;;4.93;;
15996;SDS011;8103;51.340;12.326;2024-01-30T12:48:38;9.52;;;4.90;;
15996;SDS011;8103;51.340;12.326;2024-01-30T12:51:04;5.82;;;4.65;;
15996;SDS011;8103;51.340;12.326;2024-01-30T12:53:31;6.95;;;4.65;;
15996;SDS011;8103;51.340;12.326;2024-01-30T12:55:59;6.63;;;4.75;;
15996;SDS011;8103;51.340;12.326;2024-01-30T12:58:25;5.72;;;5.13;;
15996;SDS011;8103;51.340;12.326;2024-01-30T13:00:52;7.85;;;5.03;;
15996;SDS011;8103;51.340;12.326;2024-01-30T13:03:20;7.68;;;4.70;;
15996;SDS011;8103;51.340;12.326;2024-01-30T13:05:47;9.15;;;4.65;;
15996;SDS011;8103;51.340;12.326;2024-01-30T13:08:13;8.80;;;5.15;;
15996;SDS011;8103;51.340;12.326;2024-01-30T13:10:40;6.72;;;4.72;;
15996;SDS011;8103;51.340;12.326;2024-01-30T13:13:07;7.50;;;5.25;;
15996;SDS011;8103;51.340;12.326;2024-01-30T13:15:39;8.00;;;4.32;;
15996;SDS011;8103;51.340;12.326;2024-01-30T13:18:06;7.43;;;4.38;;
15996;SDS011;8103;51.340;12.326;2024-01-30T13:20:32;7.30;;;4.72;;
15996;SDS011;8103;51.340;12.326;2024-01-30T13:22:59;7.65;;;5.18;;
15996;SDS011;8103;51.340;12.326;2024-01-30T13:25:27;6.07;;;4.50;;
15996;SDS011;8103;51.340;12.326;2024-01-30T13:27:53;7.63;;;5.40;;
15996;SDS011;8103;51.340;12.326;2024-01-30T13:30:20;9.52;;;5.32;;
15996;SDS011;8103;51.340;12.326;2024-01-30T13:32:47;6.35;;;4.78;;
15996;SDS011;8103;51.340;12.326;2024-01-30T13:35:13;7.22;;;4.95;;
15996;SDS011;8103;51.340;12.326;2024-01-30T13:37:40;6.20;;;5.45;;
15996;SDS011;8103;51.340;12.326;2024-01-30T13:40:08;9.90;;;5.07;;
15996;SDS011;8103;51.340;12.326;2024-01-30T13:42:37;9.27;;;5.78;;
15996;SDS011;8103;51.340;12.326;2024-01-30T13:45:05;6.38;;;4.82;;
15996;SDS011;8103;51.340;12.326;2024-01-30T13:47:32;10.00;;;5.82;;
15996;SDS011;8103;51.340;12.326;2024-01-30T13:49:58;10.75;;;6.47;;
15996;SDS011;8103;51.340;12.326;2024-01-30T13:52:25;8.48;;;6.15;;
15996;SDS011;8103;51.340;12.326;2024-01-30T13:54:57;6.40;;;4.95;;
15996;SDS011;8103;51.340;12.326;2024-01-30T13:57:23;7.88;;;5.40;;
15996;SDS011;8103;51.340;12.326;2024-01-30T13:59:50;14.60;;;6.55;;
15996;SDS011;8103;51.340;12.326;2024-01-30T14:02:17;7.05;;;5.60;;
15996;SDS011;8103;51.340;12.326;2024-01-30T14:04:43;12.00;;;6.32;;
15996;SDS011;8103;51.340;12.326;2024-01-30T14:07:11;11.73;;;5.60;;
15996;SDS011;8103;51.340;12.326;2024-01-30T14:09:37;9.90;;;5.55;;
15996;SDS011;8103;51.340;12.326;2024-01-30T14:12:04;8.88;;;5.60;;
15996;SDS011;8103;51.340;12.326;2024-01-30T14:14:31;18.23;;;7.28;;
15996;SDS011;8103;51.340;12.326;2024-01-30T14:16:57;11.23;;;6.43;;
15996;SDS011;8103;51.340;12.326;2024-01-30T14:19:24;6.47;;;5.15;;
15996;SDS011;8103;51.340;12.326;2024-01-30T14:21:51;12.27;;;5.80;;
15996;SDS011;8103;51.340;12.326;2024-01-30T14:24:18;10.77;;;6.30;;
15996;SDS011;8103;51.340;12.326;2024-01-30T14:26:44;7.32;;;5.40;;
15996;SDS011;8103;51.340;12.326;2024-01-30T14:29:11;8.15;;;4.90;;
15996;SDS011;8103;51.340;12.326;2024-01-30T14:31:38;5.53;;;4.40;;
15996;SDS011;8103;51.340;12.326;2024-01-30T14:34:04;11.27;;;5.70;;
15996;SDS011;8103;51.340;12.326;2024-01-30T14:36:31;6.30;;;5.70;;
15996;SDS011;8103;51.340;12.326;2024-01-30T14:38:58;9.07;;;5.05;;
15996;SDS011;8103;51.340;12.326;2024-01-30T14:41:25;8.98;;;5.60;;
15996;SDS011;8103;51.340;12.326;2024-01-30T14:43:52;9.07;;;6.20;;
15996;SDS011;8103;51.340;12.326;2024-01-30T14:46:18;10.85;;;6.82;;
15996;SDS011;8103;51.340;12.326;2024-01-30T14:48:45;11.27;;;6.85;;
15996;SDS011;8103;51.340;12.326;2024-01-30T14:51:13;6.93;;;5.80;;